createdAt,value
2022-10-28T00:01:15.466Z,3.30
2022-10-28T00:03:52.125Z,3.15
2022-10-28T00:06:22.952Z,2.42
2022-10-28T00:08:50.209Z,2.35
2022-10-28T00:11:20.410Z,3.22
2022-10-28T00:13:47.779Z,2.83
2022-10-28T00:16:24.069Z,3.35
2022-10-28T00:18:54.165Z,4.00
2022-10-28T00:21:25.215Z,3.00
2022-10-28T00:23:52.624Z,2.58
2022-10-28T00:26:21.980Z,3.00
2022-10-28T00:28:51.404Z,2.65
2022-10-28T00:31:20.033Z,2.50
2022-10-28T00:33:47.282Z,2.85
2022-10-28T00:36:23.445Z,2.88
2022-10-28T00:38:52.841Z,2.47
2022-10-28T00:41:41.519Z,2.65
2022-10-28T00:44:45.952Z,2.50
2022-10-28T00:47:36.122Z,2.50
2022-10-28T00:50:19.639Z,2.42
2022-10-28T00:52:51.552Z,2.85
2022-10-28T00:55:19.985Z,2.38
2022-10-28T00:57:47.838Z,2.83
2022-10-28T01:00:15.600Z,2.78
2022-10-28T01:02:47.806Z,2.40
2022-10-28T01:05:19.307Z,2.50
2022-10-28T01:07:46.536Z,2.42
2022-10-28T01:10:15.254Z,4.13
2022-10-28T01:13:37.719Z,3.08
2022-10-28T01:16:41.752Z,2.53
2022-10-28T01:19:50.196Z,2.65
2022-10-28T01:22:55.867Z,3.40
2022-10-28T01:26:09.260Z,2.90
2022-10-28T01:29:43.849Z,3.25
2022-10-28T01:32:26.829Z,2.72
2022-10-28T01:35:09.856Z,3.40
2022-10-28T01:37:47.816Z,3.30
2022-10-28T01:40:49.162Z,3.17
2022-10-28T01:46:54.630Z,3.50
2022-10-28T01:49:31.299Z,3.10
2022-10-28T01:52:03.977Z,3.13
2022-10-28T01:54:34.375Z,3.85
2022-10-28T01:57:04.040Z,3.70
2022-10-28T01:59:33.956Z,3.42
2022-10-28T02:04:32.801Z,4.60
2022-10-28T02:07:01.356Z,4.35
2022-10-28T02:10:00.619Z,4.35
2022-10-28T02:12:37.249Z,4.20
2022-10-28T02:16:02.721Z,3.70
2022-10-28T02:22:04.734Z,3.40
2022-10-28T02:25:05.978Z,2.78
2022-10-28T02:28:03.220Z,3.53
2022-10-28T02:30:46.545Z,3.75
2022-10-28T02:33:19.817Z,3.45
2022-10-28T02:35:51.418Z,3.58
2022-10-28T02:38:41.688Z,3.65
2022-10-28T02:41:54.645Z,3.40
2022-10-28T02:44:28.488Z,3.92
2022-10-28T02:46:58.172Z,5.80
2022-10-28T02:49:27.125Z,3.58
2022-10-28T02:51:58.601Z,3.72
2022-10-28T02:54:38.032Z,4.25
2022-10-28T02:57:10.370Z,4.28
2022-10-28T02:59:37.242Z,4.55
2022-10-28T03:02:04.476Z,4.05
2022-10-28T03:04:31.526Z,3.30
2022-10-28T03:06:58.580Z,3.47
2022-10-28T03:09:25.488Z,2.97
2022-10-28T03:11:52.467Z,3.35
2022-10-28T03:14:19.405Z,2.65
2022-10-28T03:16:46.369Z,3.75
2022-10-28T03:19:13.334Z,4.25
2022-10-28T03:21:40.271Z,4.68
2022-10-28T03:24:07.561Z,4.28
2022-10-28T03:26:34.537Z,4.28
2022-10-28T03:29:01.482Z,5.35
2022-10-28T03:31:28.499Z,5.85
2022-10-28T03:33:55.497Z,4.10
2022-10-28T03:36:22.367Z,4.05
2022-10-28T03:38:49.424Z,5.40
2022-10-28T03:41:16.407Z,4.70
2022-10-28T03:43:43.390Z,4.88
2022-10-28T03:46:10.425Z,4.15
2022-10-28T03:48:37.427Z,3.17
2022-10-28T03:51:04.590Z,3.83
2022-10-28T03:53:31.686Z,3.72
2022-10-28T03:56:01.203Z,3.90
2022-10-28T03:58:28.721Z,3.65
2022-10-28T04:00:56.480Z,4.75
2022-10-28T04:03:25.184Z,4.07
2022-10-28T04:05:52.610Z,4.72
2022-10-28T04:08:20.563Z,4.63
2022-10-28T04:10:47.866Z,3.85
2022-10-28T04:13:18.537Z,4.88
2022-10-28T04:15:45.523Z,3.58
2022-10-28T04:18:12.536Z,4.07
2022-10-28T04:20:39.966Z,3.38
2022-10-28T04:23:06.909Z,3.90
2022-10-28T04:25:33.881Z,3.25
2022-10-28T04:28:00.866Z,3.90
2022-10-28T04:30:27.885Z,3.90
2022-10-28T04:32:54.857Z,4.18
2022-10-28T04:35:21.815Z,3.78
2022-10-28T04:37:48.772Z,3.85
2022-10-28T04:40:15.792Z,8.13
2022-10-28T04:42:42.780Z,4.53
2022-10-28T04:45:10.405Z,4.65
2022-10-28T04:47:37.359Z,4.78
2022-10-28T04:50:04.867Z,3.72
2022-10-28T04:52:31.790Z,4.90
2022-10-28T04:54:58.853Z,4.13
2022-10-28T04:57:25.947Z,4.28
2022-10-28T04:59:52.998Z,5.97
2022-10-28T05:02:22.202Z,6.20
2022-10-28T05:04:49.303Z,6.10
2022-10-28T05:07:18.683Z,4.90
2022-10-28T05:09:51.179Z,5.03
2022-10-28T05:12:19.809Z,4.57
2022-10-28T05:14:48.997Z,3.65
2022-10-28T05:17:18.207Z,3.80
2022-10-28T05:19:45.461Z,5.20
2022-10-28T05:22:12.519Z,5.85
2022-10-28T05:24:39.600Z,7.97
2022-10-28T05:27:06.639Z,9.02
2022-10-28T05:29:33.630Z,14.40
2022-10-28T05:32:01.055Z,5.25
2022-10-28T05:34:28.750Z,7.05
2022-10-28T05:36:55.804Z,5.93
2022-10-28T05:39:22.645Z,5.90
2022-10-28T05:41:49.633Z,4.63
2022-10-28T05:44:16.702Z,3.90
2022-10-28T05:46:43.826Z,6.40
2022-10-28T05:49:10.818Z,5.45
2022-10-28T05:51:37.890Z,6.25
2022-10-28T05:54:05.182Z,6.95
2022-10-28T05:56:32.199Z,4.43
2022-10-28T05:58:59.460Z,4.15
2022-10-28T06:01:26.820Z,5.80
2022-10-28T06:03:54.222Z,4.57
2022-10-28T06:06:21.343Z,4.65
2022-10-28T06:08:48.271Z,4.40
2022-10-28T06:11:13.747Z,4.75
2022-10-28T06:13:40.852Z,4.40
2022-10-28T06:16:08.496Z,4.82
2022-10-28T06:18:35.651Z,4.25
2022-10-28T06:21:03.354Z,4.43
2022-10-28T06:23:30.447Z,5.57
2022-10-28T06:25:59.475Z,4.35
2022-10-28T06:28:27.813Z,5.80
2022-10-28T06:31:01.508Z,6.18
2022-10-28T06:33:28.556Z,7.28
2022-10-28T06:35:56.913Z,9.27
2022-10-28T06:38:24.664Z,6.65
2022-10-28T06:40:52.637Z,8.38
2022-10-28T06:43:20.002Z,8.18
2022-10-28T06:45:52.249Z,8.13
2022-10-28T06:48:21.030Z,6.97
2022-10-28T06:50:48.078Z,8.35
2022-10-28T06:53:15.091Z,6.88
2022-10-28T06:55:42.087Z,7.40
2022-10-28T06:58:10.144Z,10.00
2022-10-28T07:00:37.138Z,11.35
2022-10-28T07:03:04.497Z,14.68
2022-10-28T07:05:31.609Z,15.02
2022-10-28T07:07:58.694Z,16.92
2022-10-28T07:10:25.889Z,21.88
2022-10-28T07:12:58.473Z,29.80
2022-10-28T07:15:25.690Z,26.85
2022-10-28T07:17:58.226Z,25.77
2022-10-28T07:20:27.189Z,24.27
2022-10-28T07:22:58.505Z,15.60
2022-10-28T07:25:27.541Z,18.42
2022-10-28T07:27:56.878Z,13.35
2022-10-28T07:30:24.333Z,11.52
2022-10-28T07:32:51.466Z,12.02
2022-10-28T07:35:18.701Z,9.70
2022-10-28T07:37:46.016Z,9.25
2022-10-28T07:40:13.427Z,9.85
2022-10-28T07:42:40.581Z,10.13
2022-10-28T07:45:08.153Z,8.88
2022-10-28T07:47:35.302Z,8.00
2022-10-28T07:50:02.833Z,7.35
2022-10-28T07:52:29.979Z,9.60
2022-10-28T07:54:57.072Z,8.65
2022-10-28T07:57:24.110Z,8.32
2022-10-28T07:59:51.875Z,9.30
2022-10-28T08:02:24.501Z,8.50
2022-10-28T08:04:51.884Z,10.23
2022-10-28T08:07:19.859Z,8.65
2022-10-28T08:09:46.973Z,8.32
2022-10-28T08:12:15.278Z,8.50
2022-10-28T08:14:42.292Z,7.18
2022-10-28T08:17:09.343Z,8.27
2022-10-28T08:19:36.415Z,7.32
2022-10-28T08:22:03.897Z,6.57
2022-10-28T08:24:30.970Z,6.28
2022-10-28T08:26:58.032Z,6.93
2022-10-28T08:29:29.069Z,9.93
2022-10-28T08:31:58.016Z,7.40
2022-10-28T08:34:29.953Z,10.57
2022-10-28T08:36:57.709Z,8.15
2022-10-28T08:39:24.820Z,8.50
2022-10-28T08:42:08.108Z,8.23
2022-10-28T08:45:02.159Z,8.65
2022-10-28T08:48:12.753Z,8.02
2022-10-28T08:50:50.757Z,8.30
2022-10-28T08:53:33.828Z,9.90
2022-10-28T08:56:14.664Z,8.52
2022-10-28T08:58:44.086Z,19.38
2022-10-28T09:01:20.839Z,8.52
2022-10-28T09:03:51.516Z,8.43
2022-10-28T09:06:18.528Z,8.88
2022-10-28T09:08:49.579Z,7.93
2022-10-28T09:11:36.885Z,7.72
2022-10-28T09:14:30.737Z,7.68
2022-10-28T09:17:21.677Z,7.88
2022-10-28T09:20:12.798Z,8.40
2022-10-28T09:22:55.882Z,7.30
2022-10-28T09:25:33.015Z,9.25
2022-10-28T09:28:59.086Z,6.65
2022-10-28T09:31:52.827Z,6.85
2022-10-28T09:34:40.746Z,6.90
2022-10-28T09:37:43.457Z,6.78
2022-10-28T09:40:25.270Z,6.65
2022-10-28T09:43:23.218Z,6.90
2022-10-28T09:45:53.618Z,12.23
2022-10-28T09:48:26.089Z,6.15
2022-10-28T09:50:56.181Z,6.60
2022-10-28T09:53:44.381Z,5.88
2022-10-28T09:56:11.651Z,6.38
2022-10-28T09:58:43.118Z,6.63
2022-10-28T10:01:10.231Z,7.18
2022-10-28T10:03:40.178Z,5.53
2022-10-28T10:06:20.241Z,7.35
2022-10-28T10:08:48.376Z,6.40
2022-10-28T10:11:43.863Z,5.00
2022-10-28T10:14:15.377Z,6.25
2022-10-28T10:16:58.000Z,12.05
2022-10-28T10:19:25.051Z,5.75
2022-10-28T10:21:56.954Z,5.45
2022-10-28T10:24:34.854Z,5.80
2022-10-28T10:27:14.588Z,5.93
2022-10-28T10:29:47.537Z,6.05
2022-10-28T10:32:30.865Z,3.88
2022-10-28T10:35:06.854Z,4.22
2022-10-28T10:37:36.093Z,4.60
2022-10-28T10:40:33.823Z,6.00
2022-10-28T10:43:23.116Z,3.88
2022-10-28T10:46:15.172Z,3.45
2022-10-28T10:48:43.437Z,3.45
2022-10-28T10:51:22.396Z,3.90
2022-10-28T10:53:53.121Z,5.20
2022-10-28T10:56:26.625Z,10.98
2022-10-28T10:58:57.575Z,3.90
2022-10-28T11:01:27.625Z,2.90
2022-10-28T11:04:06.435Z,2.80
2022-10-28T11:06:43.087Z,3.75
2022-10-28T11:09:42.587Z,5.22
2022-10-28T11:12:36.039Z,3.92
2022-10-28T11:15:21.480Z,2.55
2022-10-28T11:18:03.745Z,3.33
2022-10-28T11:24:25.564Z,2.72
2022-10-28T11:27:18.593Z,3.33
2022-10-28T11:29:47.014Z,3.15
2022-10-28T11:32:50.190Z,4.15
2022-10-28T11:35:43.324Z,3.35
2022-10-28T11:38:27.304Z,3.50
2022-10-28T11:41:38.838Z,2.35
2022-10-28T11:44:50.448Z,2.83
2022-10-28T11:48:06.728Z,3.78
2022-10-28T11:51:00.427Z,2.15
2022-10-28T11:57:16.501Z,2.50
2022-10-28T12:00:36.001Z,2.30
2022-10-28T12:03:45.038Z,1.90
2022-10-28T12:06:21.587Z,2.47
2022-10-28T12:09:47.677Z,2.35
2022-10-28T12:24:40.234Z,4.57
2022-10-28T12:27:18.860Z,2.25
2022-10-28T12:30:00.445Z,2.78
2022-10-28T12:32:31.927Z,3.20
2022-10-28T12:35:20.242Z,2.63
2022-10-28T12:38:16.539Z,4.05
2022-10-28T12:41:13.363Z,2.40
2022-10-28T12:44:09.571Z,3.67
2022-10-28T12:47:04.889Z,2.17
2022-10-28T12:49:45.842Z,2.50
2022-10-28T12:52:47.419Z,5.60
2022-10-28T12:55:43.657Z,2.53
2022-10-28T12:58:41.016Z,1.73
2022-10-28T13:01:15.103Z,2.70
2022-10-28T13:03:42.726Z,3.30
2022-10-28T13:06:44.171Z,2.97
2022-10-28T13:09:50.963Z,2.45
2022-10-28T13:12:43.369Z,2.97
2022-10-28T13:15:26.530Z,2.67
2022-10-28T13:22:13.503Z,3.10
2022-10-28T13:25:49.167Z,3.10
2022-10-28T13:28:19.650Z,3.10
2022-10-28T13:30:59.445Z,4.05
2022-10-28T13:33:28.942Z,3.35
2022-10-28T13:36:09.335Z,3.42
2022-10-28T13:41:26.905Z,3.15
2022-10-28T13:44:19.924Z,4.05
2022-10-28T13:47:26.010Z,4.13
2022-10-28T13:50:39.043Z,2.80
2022-10-28T13:54:10.006Z,3.33
2022-10-28T13:56:51.437Z,5.47
2022-10-28T13:59:35.801Z,3.40
2022-10-28T14:02:42.845Z,2.22
2022-10-28T14:05:20.759Z,3.47
2022-10-28T14:07:59.072Z,2.72
2022-10-28T14:10:49.933Z,3.35
2022-10-28T14:13:25.028Z,3.83
2022-10-28T14:16:25.631Z,3.72
2022-10-28T14:19:28.054Z,3.35
2022-10-28T14:22:13.273Z,2.58
2022-10-28T14:24:45.937Z,4.00
2022-10-28T14:27:44.804Z,3.83
2022-10-28T14:30:17.828Z,2.60
2022-10-28T14:32:57.556Z,3.42
2022-10-28T14:35:33.850Z,7.47
2022-10-28T14:38:42.236Z,5.95
2022-10-28T14:42:04.872Z,5.53
2022-10-28T14:45:14.586Z,6.82
2022-10-28T14:48:08.743Z,5.85
2022-10-28T14:50:41.231Z,6.20
2022-10-28T14:53:14.774Z,18.05
2022-10-28T14:55:47.645Z,14.38
2022-10-28T14:58:28.417Z,17.88
2022-10-28T15:01:20.648Z,20.45
2022-10-28T15:03:51.621Z,9.05
2022-10-28T15:06:41.933Z,18.48
2022-10-28T15:09:39.909Z,5.78
2022-10-28T15:12:10.232Z,3.90
2022-10-28T15:14:40.601Z,3.70
2022-10-28T15:17:19.712Z,5.78
2022-10-28T15:19:52.052Z,3.53
2022-10-28T15:22:31.405Z,5.35
2022-10-28T15:25:04.732Z,8.02
2022-10-28T15:27:42.967Z,28.95
2022-10-28T15:30:24.682Z,63.45
2022-10-28T15:32:53.068Z,27.02
2022-10-28T15:35:49.331Z,12.13
2022-10-28T15:38:35.315Z,5.80
2022-10-28T15:41:02.219Z,17.35
2022-10-28T15:43:30.896Z,18.23
2022-10-28T15:46:11.278Z,32.47
2022-10-28T15:51:18.558Z,25.98
2022-10-28T15:53:54.324Z,11.57
2022-10-28T15:56:27.938Z,13.18
2022-10-28T15:59:19.676Z,8.50
2022-10-28T16:01:46.815Z,10.52
2022-10-28T16:04:46.699Z,6.15
2022-10-28T16:07:14.047Z,6.67
2022-10-28T16:09:46.737Z,6.25
2022-10-28T16:12:22.725Z,4.70
2022-10-28T16:14:59.200Z,7.35
2022-10-28T16:17:30.276Z,5.40
2022-10-28T16:20:00.504Z,4.18
2022-10-28T16:22:29.366Z,8.38
2022-10-28T16:24:57.625Z,6.03
2022-10-28T16:27:27.088Z,5.35
2022-10-28T16:29:54.444Z,5.28
2022-10-28T16:32:35.395Z,4.22
2022-10-28T16:35:04.121Z,4.57
2022-10-28T16:37:34.422Z,4.25
2022-10-28T16:40:01.608Z,5.43
2022-10-28T16:42:28.511Z,5.43
2022-10-28T16:44:55.591Z,5.07
2022-10-28T16:47:25.801Z,4.47
2022-10-28T16:49:57.129Z,5.93
2022-10-28T16:52:31.365Z,8.05
2022-10-28T16:54:58.990Z,6.95
2022-10-28T16:57:26.612Z,6.35
2022-10-28T16:59:53.953Z,6.72
2022-10-28T17:02:32.603Z,7.15
2022-10-28T17:05:00.241Z,7.22
2022-10-28T17:07:28.123Z,6.22
2022-10-28T17:09:55.229Z,5.70
2022-10-28T17:12:24.964Z,4.70
2022-10-28T17:14:52.047Z,3.75
2022-10-28T17:17:19.399Z,15.75
2022-10-28T17:19:46.909Z,5.05
2022-10-28T17:22:14.275Z,5.07
2022-10-28T17:24:41.245Z,5.65
2022-10-28T17:27:08.544Z,4.70
2022-10-28T17:29:35.727Z,5.28
2022-10-28T17:32:02.838Z,3.40
2022-10-28T17:34:29.964Z,3.63
2022-10-28T17:36:56.987Z,3.75
2022-10-28T17:39:26.428Z,4.97
2022-10-28T17:41:54.113Z,5.45
2022-10-28T17:44:21.398Z,5.05
2022-10-28T17:46:49.479Z,5.03
2022-10-28T17:49:16.821Z,5.97
2022-10-28T17:51:44.124Z,6.18
2022-10-28T17:54:11.443Z,4.85
2022-10-28T17:56:39.436Z,7.45
2022-10-28T17:59:06.475Z,8.10
2022-10-28T18:01:35.152Z,8.57
2022-10-28T18:04:03.910Z,7.70
2022-10-28T18:06:30.820Z,5.85
2022-10-28T18:08:58.561Z,5.50
2022-10-28T18:11:27.702Z,5.28
2022-10-28T18:13:56.456Z,5.00
2022-10-28T18:16:28.186Z,5.10
2022-10-28T18:18:56.264Z,4.70
2022-10-28T18:21:24.659Z,6.60
2022-10-28T18:23:52.964Z,4.18
2022-10-28T18:26:21.016Z,4.18
2022-10-28T18:28:49.245Z,3.13
2022-10-28T18:31:18.958Z,4.35
2022-10-28T18:33:46.941Z,3.70
2022-10-28T18:36:19.115Z,4.00
2022-10-28T18:38:46.073Z,3.88
2022-10-28T18:41:15.342Z,3.53
2022-10-28T18:43:42.633Z,4.93
2022-10-28T18:46:09.924Z,4.80
2022-10-28T18:48:37.148Z,5.22
2022-10-28T18:51:06.949Z,4.07
2022-10-28T18:53:38.727Z,3.80
2022-10-28T18:56:07.611Z,4.90
2022-10-28T18:58:34.746Z,4.45
2022-10-28T19:01:22.322Z,3.75
2022-10-28T19:03:57.283Z,4.60
2022-10-28T19:06:24.964Z,3.45
2022-10-28T19:08:57.887Z,3.40
2022-10-28T19:11:30.199Z,3.50
2022-10-28T19:13:59.107Z,3.40
2022-10-28T19:16:26.635Z,3.13
2022-10-28T19:18:57.560Z,3.20
2022-10-28T19:21:25.444Z,2.80
2022-10-28T19:23:52.850Z,3.42
2022-10-28T19:26:20.123Z,3.45
2022-10-28T19:28:48.663Z,2.88
2022-10-28T19:31:18.583Z,2.80
2022-10-28T19:33:45.791Z,2.40
2022-10-28T19:36:24.133Z,3.17
2022-10-28T19:38:55.762Z,3.40
2022-10-28T19:41:25.341Z,3.83
2022-10-28T19:44:00.312Z,4.00
2022-10-28T19:46:29.433Z,4.68
2022-10-28T19:48:58.806Z,3.35
2022-10-28T19:51:31.217Z,3.25
2022-10-28T19:54:00.510Z,2.75
2022-10-28T19:56:29.669Z,2.60
2022-10-28T19:58:59.447Z,2.42
2022-10-28T20:01:29.285Z,3.10
2022-10-28T20:03:57.137Z,3.28
2022-10-28T20:06:33.609Z,2.80
2022-10-28T20:09:01.042Z,2.30
2022-10-28T20:11:31.924Z,3.20
2022-10-28T20:14:01.080Z,3.20
2022-10-28T20:16:28.839Z,3.70
2022-10-28T20:18:56.896Z,3.47
2022-10-28T20:21:26.186Z,3.05
2022-10-28T20:23:55.728Z,2.80
2022-10-28T20:26:34.233Z,3.35
2022-10-28T20:29:03.956Z,2.45
2022-10-28T20:31:32.552Z,2.17
2022-10-28T20:34:03.596Z,3.13
2022-10-28T20:36:38.259Z,2.90
2022-10-28T20:39:13.169Z,3.15
2022-10-28T20:41:41.367Z,4.07
2022-10-28T20:44:08.655Z,2.80
2022-10-28T20:46:36.097Z,2.95
2022-10-28T20:49:04.501Z,3.63
2022-10-28T20:51:32.845Z,4.20
2022-10-28T20:54:00.101Z,3.90
2022-10-28T20:56:29.396Z,3.22
2022-10-28T20:58:57.934Z,2.83
2022-10-28T21:01:27.746Z,3.42
2022-10-28T21:03:56.865Z,3.03
2022-10-28T21:06:24.183Z,2.58
2022-10-28T21:08:51.390Z,3.10
2022-10-28T21:11:18.606Z,3.30
2022-10-28T21:13:51.936Z,2.70
2022-10-28T21:16:20.029Z,4.25
2022-10-28T21:18:47.357Z,3.28
2022-10-28T21:21:21.995Z,3.03
2022-10-28T21:23:49.280Z,3.10
2022-10-28T21:26:16.225Z,2.80
2022-10-28T21:28:43.574Z,3.03
2022-10-28T21:31:15.554Z,2.88
2022-10-28T21:33:43.002Z,2.60
2022-10-28T21:36:16.035Z,3.33
2022-10-28T21:38:43.619Z,3.75
2022-10-28T21:41:13.630Z,3.42
2022-10-28T21:43:42.826Z,3.20
2022-10-28T21:46:10.440Z,2.50
2022-10-28T21:48:38.796Z,2.38
2022-10-28T21:51:11.638Z,2.97
2022-10-28T21:53:42.957Z,2.70
2022-10-28T21:56:17.143Z,2.72
2022-10-28T21:58:45.286Z,3.45
2022-10-28T22:01:15.945Z,2.75
2022-10-28T22:03:43.273Z,2.42
2022-10-28T22:06:10.780Z,2.45
2022-10-28T22:08:37.705Z,3.10
2022-10-28T22:11:11.951Z,2.65
2022-10-28T22:13:39.056Z,3.00
2022-10-28T22:16:08.609Z,3.78
2022-10-28T22:18:36.751Z,3.90
2022-10-28T22:21:09.462Z,3.20
2022-10-28T22:23:37.005Z,2.85
2022-10-28T22:26:06.931Z,2.40
2022-10-28T22:28:33.977Z,3.58
2022-10-28T22:31:02.922Z,3.42
2022-10-28T22:33:29.889Z,3.30
2022-10-28T22:36:02.096Z,3.03
2022-10-28T22:38:29.206Z,2.83
2022-10-28T22:41:16.132Z,2.70
2022-10-28T22:43:44.838Z,3.08
2022-10-28T22:46:13.486Z,3.30
2022-10-28T22:48:40.561Z,3.00
2022-10-28T22:51:07.546Z,2.88
2022-10-28T22:53:34.493Z,3.28
2022-10-28T22:56:01.449Z,2.60
2022-10-28T22:58:28.733Z,2.85
2022-10-28T23:01:05.680Z,2.58
2022-10-28T23:03:39.985Z,3.22
2022-10-28T23:06:07.695Z,2.42
2022-10-28T23:08:35.029Z,2.33
2022-10-28T23:11:02.095Z,2.72
2022-10-28T23:13:29.306Z,2.67
2022-10-28T23:15:56.429Z,2.60
2022-10-28T23:18:28.185Z,2.80
2022-10-28T23:20:55.147Z,2.65
2022-10-28T23:23:22.054Z,2.85
2022-10-28T23:25:53.186Z,2.85
2022-10-28T23:30:47.562Z,2.78
2022-10-28T23:33:14.682Z,2.55
2022-10-28T23:35:43.072Z,3.58
2022-10-28T23:38:16.698Z,3.15
2022-10-28T23:40:43.702Z,2.83
2022-10-28T23:43:10.620Z,2.88
2022-10-28T23:45:37.549Z,2.97
2022-10-28T23:48:04.629Z,2.97
2022-10-28T23:50:31.657Z,3.30
2022-10-28T23:52:58.751Z,2.38
2022-10-28T23:55:25.828Z,2.47
2022-10-28T23:57:56.464Z,3.10
